Huvudsida
METAR-TAF:

METAR-TAF

Flygplatser :

Dakar, Senegal

latitud: 14-44N, longitud: 017-30W, höjd: 27 m

Aktuellt väderrapport

Denna rapport gjordes för 51 minuter sedan, klockan 12:00 UTC
Vind 8 kt från nord/nordost
Temperatur 26°C
Fuktighet 51%
Tryck 1014 hPa
Sikt 10 km eller mer
Inga moln under 1 500 m eller inga cumulonimbus

METAR: GOOY 121200Z 02008KT CAVOK 26/15 Q1014

Tid: 12:51 (12:51 UTC)

Väderprognos

Denna rapport gjordes för 1 timme och 51 minuter sedan, klockan 11:00 UTC
Prognos gäller från 12 kl. 12 UTC till 13 kl. 18 UTC
Vind 10 kt från nord/nordost
Sikt: 8000 m

TAF: GOOY 121100Z 1212/1318 02010KT 8000 NSC

Aktuella väderrapporter och prognoser från 4000 flygplatser (METAR- och TAF-rapporter).

De tillgängliga stationerna syns som gula och röda prickar på kartan.

För musen över prickarna för att se namnen på stationerna.

Klicka sedan för att få väderrapporter och prognoser.

För att ändra kartan: Klicka på de gröna knapparna med ett svart kors på för att zooma in; den gröna knappen med ett streck på för att zooma ut; eller på de gröna pilarna för angränsande kartor.


METAR-TAF: